createdAt,value
2023-02-14T00:01:18.119Z,32.60
2023-02-14T00:03:44.784Z,34.58
2023-02-14T00:06:13.719Z,32.00
2023-02-14T00:08:44.177Z,32.78
2023-02-14T00:11:12.064Z,33.60
2023-02-14T00:13:39.014Z,31.83
2023-02-14T00:16:05.828Z,32.72
2023-02-14T00:18:51.064Z,32.08
2023-02-14T00:21:17.729Z,32.22
2023-02-14T00:23:44.328Z,33.08
2023-02-14T00:26:15.417Z,33.03
2023-02-14T00:28:42.211Z,31.20
2023-02-14T00:31:09.024Z,31.90
2023-02-14T00:33:35.694Z,30.80
2023-02-14T00:36:10.182Z,29.10
2023-02-14T00:38:36.855Z,32.58
2023-02-14T00:41:05.009Z,36.72
2023-02-14T00:43:31.697Z,33.45
2023-02-14T00:45:58.362Z,31.92
2023-02-14T00:48:25.158Z,36.10
2023-02-14T00:50:51.919Z,33.92
2023-02-14T00:53:18.532Z,36.85
2023-02-14T00:55:46.831Z,29.15
2023-02-14T00:58:13.724Z,32.05
2023-02-14T01:00:40.465Z,31.02
2023-02-14T01:03:07.194Z,30.70
2023-02-14T01:05:33.798Z,30.77
2023-02-14T01:08:00.424Z,31.52
2023-02-14T01:10:27.051Z,31.85
2023-02-14T01:12:53.645Z,32.40
2023-02-14T01:15:20.397Z,31.25
2023-02-14T01:17:46.975Z,33.92
2023-02-14T01:20:14.637Z,31.88
2023-02-14T01:22:41.369Z,31.65
2023-02-14T01:25:08.067Z,29.40
2023-02-14T01:27:34.701Z,31.83
2023-02-14T01:30:01.337Z,31.33
2023-02-14T01:32:31.523Z,31.48
2023-02-14T01:34:58.254Z,30.52
2023-02-14T01:37:24.992Z,28.67
2023-02-14T01:39:51.689Z,31.13
2023-02-14T01:42:18.462Z,31.45
2023-02-14T01:44:45.007Z,31.33
2023-02-14T01:47:12.468Z,29.90
2023-02-14T01:49:43.568Z,29.98
2023-02-14T01:52:18.488Z,32.28
2023-02-14T01:54:59.175Z,33.80
2023-02-14T01:57:35.774Z,30.17
2023-02-14T02:00:23.248Z,30.58
2023-02-14T02:02:49.940Z,29.85
2023-02-14T02:05:23.480Z,30.65
2023-02-14T02:10:18.749Z,31.10
2023-02-14T02:12:45.479Z,32.80
2023-02-14T02:15:12.141Z,32.10
2023-02-14T02:17:57.048Z,32.03
2023-02-14T02:20:43.901Z,33.85
2023-02-14T02:23:38.367Z,33.88
2023-02-14T02:26:22.200Z,30.02
2023-02-14T02:31:49.716Z,33.70
2023-02-14T02:34:43.694Z,33.67
2023-02-14T02:37:38.343Z,30.75
2023-02-14T02:40:29.435Z,29.38
2023-02-14T02:43:42.650Z,33.72
2023-02-14T02:47:02.960Z,30.17
2023-02-14T02:50:05.560Z,30.30
2023-02-14T02:53:05.921Z,30.63
2023-02-14T02:56:16.021Z,30.10
2023-02-14T02:58:51.014Z,32.15
2023-02-14T03:01:24.372Z,31.08
2023-02-14T03:04:17.196Z,30.65
2023-02-14T03:06:48.108Z,32.03
2023-02-14T03:09:20.760Z,31.08
2023-02-14T03:12:03.677Z,36.73
2023-02-14T03:14:44.491Z,35.60
2023-02-14T03:17:36.625Z,34.47
2023-02-14T03:20:16.254Z,29.75
2023-02-14T03:22:56.001Z,35.42
2023-02-14T03:25:25.443Z,31.38
2023-02-14T03:28:03.028Z,35.03
2023-02-14T03:30:43.320Z,34.83
2023-02-14T03:33:20.322Z,34.15
2023-02-14T03:36:06.110Z,34.47
2023-02-14T03:38:45.302Z,34.38
2023-02-14T03:41:21.622Z,34.08
2023-02-14T03:43:58.830Z,29.45
2023-02-14T03:46:32.332Z,34.00
2023-02-14T03:51:34.208Z,34.72
2023-02-14T03:54:03.009Z,32.00
2023-02-14T03:56:40.673Z,32.58
2023-02-14T03:59:18.939Z,30.65
2023-02-14T04:01:56.666Z,30.40
2023-02-14T04:04:29.016Z,29.98
2023-02-14T04:06:55.728Z,34.28
2023-02-14T04:09:22.387Z,32.35
2023-02-14T04:11:50.423Z,31.50
2023-02-14T04:14:17.557Z,32.92
2023-02-14T04:17:02.650Z,32.00
2023-02-14T04:19:29.259Z,29.67
2023-02-14T04:21:55.853Z,31.48
2023-02-14T04:24:22.429Z,30.02
2023-02-14T04:27:09.889Z,33.00
2023-02-14T04:29:42.385Z,33.13
2023-02-14T04:32:12.246Z,29.55
2023-02-14T04:34:39.389Z,31.83
2023-02-14T04:37:06.612Z,33.03
2023-02-14T04:39:34.381Z,33.35
2023-02-14T04:42:01.700Z,31.55
2023-02-14T04:44:28.505Z,31.85
2023-02-14T04:46:55.546Z,33.95
2023-02-14T04:49:22.386Z,30.13
2023-02-14T04:51:49.078Z,29.65
2023-02-14T04:54:15.737Z,29.27
2023-02-14T04:56:42.462Z,29.98
2023-02-14T04:59:09.299Z,31.75
2023-02-14T05:01:36.105Z,28.38
2023-02-14T05:04:02.822Z,30.15
2023-02-14T05:06:29.789Z,33.38
2023-02-14T05:08:56.679Z,33.42
2023-02-14T05:11:23.583Z,32.35
2023-02-14T05:13:50.453Z,29.98
2023-02-14T05:16:17.141Z,31.00
2023-02-14T05:18:43.754Z,31.23
2023-02-14T05:21:10.880Z,32.63
2023-02-14T05:23:37.766Z,30.20
2023-02-14T05:26:04.913Z,34.83
2023-02-14T05:28:31.797Z,29.95
2023-02-14T05:30:59.118Z,29.67
2023-02-14T05:33:26.388Z,28.02
2023-02-14T05:35:53.364Z,29.45
2023-02-14T05:38:20.268Z,27.35
2023-02-14T05:40:46.862Z,30.80
2023-02-14T05:43:13.585Z,28.75
2023-02-14T05:45:40.275Z,31.15
2023-02-14T05:48:06.911Z,31.70
2023-02-14T05:50:33.686Z,30.42
2023-02-14T05:53:00.995Z,28.10
2023-02-14T05:55:27.804Z,31.27
2023-02-14T05:57:54.578Z,30.15
2023-02-14T06:00:22.306Z,30.85
2023-02-14T06:02:48.906Z,28.20
2023-02-14T06:05:17.731Z,30.95
2023-02-14T06:07:50.410Z,30.20
2023-02-14T06:10:22.258Z,28.27
2023-02-14T06:12:50.110Z,28.38
2023-02-14T06:15:17.082Z,27.95
2023-02-14T06:17:43.955Z,28.50
2023-02-14T06:20:11.446Z,28.60
2023-02-14T06:22:39.103Z,27.20
2023-02-14T06:25:06.238Z,29.83
2023-02-14T06:27:33.234Z,26.75
2023-02-14T06:30:00.625Z,26.42
2023-02-14T06:32:27.484Z,27.58
2023-02-14T06:34:54.119Z,27.45
2023-02-14T06:37:20.802Z,29.90
2023-02-14T06:39:47.434Z,33.28
2023-02-14T06:42:14.083Z,30.20
2023-02-14T06:44:40.727Z,30.00
2023-02-14T06:47:08.494Z,27.75
2023-02-14T06:49:35.179Z,28.90
2023-02-14T06:52:02.034Z,28.20
2023-02-14T06:54:28.618Z,29.08
2023-02-14T06:56:55.248Z,31.30
2023-02-14T06:59:21.972Z,30.90
2023-02-14T07:01:48.681Z,33.50
2023-02-14T07:04:15.611Z,28.52
2023-02-14T07:06:42.186Z,27.13
2023-02-14T07:09:08.795Z,31.25
2023-02-14T07:11:35.389Z,31.00
2023-02-14T07:14:01.968Z,28.98
2023-02-14T07:16:28.643Z,33.08
2023-02-14T07:18:55.291Z,30.23
2023-02-14T07:21:21.938Z,29.00
2023-02-14T07:23:49.982Z,28.45
2023-02-14T07:26:18.199Z,27.77
2023-02-14T07:28:49.181Z,29.17
2023-02-14T07:31:17.272Z,30.58
2023-02-14T07:33:44.341Z,28.48
2023-02-14T07:36:11.286Z,28.77
2023-02-14T07:38:37.914Z,25.27
2023-02-14T07:41:04.762Z,26.30
2023-02-14T07:43:33.186Z,29.45
2023-02-14T07:46:01.571Z,29.30
2023-02-14T07:48:30.992Z,28.63
2023-02-14T07:50:58.805Z,26.30
2023-02-14T07:53:25.644Z,27.35
2023-02-14T07:55:52.853Z,28.02
2023-02-14T07:58:19.498Z,26.45
2023-02-14T08:00:46.537Z,26.13
2023-02-14T08:03:14.243Z,22.73
2023-02-14T08:05:41.323Z,27.10
2023-02-14T08:08:08.080Z,24.15
2023-02-14T08:10:34.716Z,25.42
2023-02-14T08:13:01.520Z,23.30
2023-02-14T08:15:52.396Z,24.95
2023-02-14T08:18:20.932Z,24.58
2023-02-14T08:20:49.727Z,21.52
2023-02-14T08:23:17.573Z,25.55
2023-02-14T08:25:44.260Z,23.67
2023-02-14T08:28:11.050Z,26.25
2023-02-14T08:30:38.174Z,23.65
2023-02-14T08:33:06.037Z,21.90
2023-02-14T08:35:32.901Z,23.13
2023-02-14T08:37:59.549Z,20.67
2023-02-14T08:40:26.400Z,23.08
2023-02-14T08:42:53.027Z,23.60
2023-02-14T08:45:19.675Z,24.90
2023-02-14T08:47:46.993Z,22.73
2023-02-14T08:50:16.281Z,22.15
2023-02-14T08:52:43.794Z,23.05
2023-02-14T08:55:12.107Z,20.00
2023-02-14T08:57:39.634Z,18.25
2023-02-14T09:00:08.264Z,20.58
2023-02-14T09:02:34.931Z,21.13
2023-02-14T09:05:01.807Z,21.42
2023-02-14T09:07:28.427Z,22.63
2023-02-14T09:09:55.059Z,18.13
2023-02-14T09:12:21.905Z,20.80
2023-02-14T09:14:48.559Z,19.75
2023-02-14T09:17:15.731Z,19.65
2023-02-14T09:19:42.814Z,17.13
2023-02-14T09:22:10.968Z,18.42
2023-02-14T09:24:39.300Z,19.38
2023-02-14T09:27:06.504Z,19.08
2023-02-14T09:29:33.942Z,19.92
2023-02-14T09:32:01.975Z,18.08
2023-02-14T09:34:29.371Z,19.73
2023-02-14T09:37:14.705Z,19.52
2023-02-14T09:39:41.409Z,21.15
2023-02-14T09:42:30.788Z,20.25
2023-02-14T09:45:21.322Z,20.70
2023-02-14T09:48:06.219Z,21.92
2023-02-14T09:50:35.560Z,20.35
2023-02-14T09:53:08.248Z,18.08
2023-02-14T09:55:47.275Z,17.87
2023-02-14T09:58:22.905Z,19.10
2023-02-14T10:01:13.390Z,17.23
2023-02-14T10:04:07.579Z,20.73
2023-02-14T10:09:28.332Z,19.83
2023-02-14T10:11:58.096Z,18.52
2023-02-14T10:14:29.933Z,20.73
2023-02-14T10:16:59.704Z,18.83
2023-02-14T10:19:39.218Z,19.77
2023-02-14T10:22:18.946Z,17.70
2023-02-14T10:24:52.979Z,19.77
2023-02-14T10:27:44.633Z,18.15
2023-02-14T10:30:20.381Z,16.65
2023-02-14T10:33:16.758Z,17.27
2023-02-14T10:35:52.397Z,16.80
2023-02-14T10:38:48.819Z,17.48
2023-02-14T10:41:24.247Z,17.88
2023-02-14T10:44:08.972Z,18.42
2023-02-14T10:46:38.881Z,17.90
2023-02-14T10:49:33.333Z,22.02
2023-02-14T10:52:34.457Z,18.38
2023-02-14T10:55:31.873Z,17.80
2023-02-14T10:58:01.645Z,18.52
2023-02-14T11:00:38.059Z,18.30
2023-02-14T11:03:08.575Z,17.20
2023-02-14T11:05:40.160Z,17.00
2023-02-14T11:08:34.415Z,13.48
2023-02-14T11:11:35.728Z,19.58
2023-02-14T11:14:41.200Z,19.88
2023-02-14T11:17:29.653Z,20.60
2023-02-14T11:20:22.274Z,18.38
2023-02-14T11:22:50.284Z,20.52
2023-02-14T11:25:29.426Z,20.92
2023-02-14T11:28:05.351Z,19.80
2023-02-14T11:30:37.030Z,18.23
2023-02-14T11:33:04.714Z,20.67
2023-02-14T11:35:35.414Z,19.92
2023-02-14T11:38:07.074Z,20.58
2023-02-14T11:40:37.152Z,19.83
2023-02-14T11:43:15.661Z,19.35
2023-02-14T11:45:47.713Z,20.70
2023-02-14T11:48:38.551Z,20.40
2023-02-14T11:51:09.780Z,17.83
2023-02-14T11:53:45.803Z,20.30
2023-02-14T11:56:13.596Z,22.05
2023-02-14T11:58:53.821Z,20.77
2023-02-14T12:01:32.743Z,23.00
2023-02-14T12:04:06.113Z,20.55
2023-02-14T12:06:35.186Z,20.90
2023-02-14T12:09:27.099Z,17.15
2023-02-14T12:11:59.352Z,19.25
2023-02-14T12:14:33.971Z,21.15
2023-02-14T12:17:35.698Z,18.30
2023-02-14T12:20:14.250Z,20.48
2023-02-14T12:22:51.414Z,20.27
2023-02-14T12:25:24.842Z,18.90
2023-02-14T12:30:33.790Z,19.55
2023-02-14T12:33:01.101Z,17.33
2023-02-14T12:36:24.548Z,19.13
2023-02-14T12:39:10.148Z,17.63
2023-02-14T12:41:54.586Z,18.45
2023-02-14T12:44:49.873Z,19.45
2023-02-14T12:47:28.098Z,19.98
2023-02-14T12:49:59.698Z,18.33
2023-02-14T12:52:38.298Z,16.65
2023-02-14T12:55:35.685Z,19.95
2023-02-14T12:58:26.953Z,18.75
2023-02-14T13:01:13.232Z,18.02
2023-02-14T13:03:49.250Z,17.38
2023-02-14T13:06:29.169Z,19.75
2023-02-14T13:09:21.475Z,15.80
2023-02-14T13:12:35.082Z,19.38
2023-02-14T13:15:23.395Z,15.97
2023-02-14T13:18:12.464Z,18.00
2023-02-14T13:20:55.671Z,17.52
2023-02-14T13:23:52.819Z,16.75
2023-02-14T13:26:24.905Z,19.05
2023-02-14T13:29:13.415Z,19.33
2023-02-14T13:31:41.503Z,16.88
2023-02-14T13:34:14.007Z,18.45
2023-02-14T13:36:41.100Z,17.85
2023-02-14T13:39:15.917Z,15.73
2023-02-14T13:41:42.505Z,17.58
2023-02-14T13:44:09.132Z,16.23
2023-02-14T13:46:35.990Z,17.45
2023-02-14T13:49:24.250Z,17.00
2023-02-14T13:51:53.609Z,18.02
2023-02-14T13:54:21.271Z,18.25
2023-02-14T13:56:48.612Z,16.98
2023-02-14T13:59:29.116Z,15.40
2023-02-14T14:01:56.363Z,15.57
2023-02-14T14:04:28.798Z,17.10
2023-02-14T14:07:04.152Z,16.48
2023-02-14T14:09:42.952Z,17.40
2023-02-14T14:12:27.717Z,16.92
2023-02-14T14:15:06.743Z,16.83
2023-02-14T14:17:45.997Z,17.23
2023-02-14T14:20:21.709Z,20.02
2023-02-14T14:22:54.814Z,17.27
2023-02-14T14:25:37.229Z,15.85
2023-02-14T14:28:25.101Z,14.05
2023-02-14T14:30:52.228Z,18.77
2023-02-14T14:33:34.792Z,16.13
2023-02-14T14:36:10.199Z,17.00
2023-02-14T14:38:48.316Z,18.17
2023-02-14T14:41:15.041Z,18.13
2023-02-14T14:43:42.029Z,18.55
2023-02-14T14:46:12.072Z,17.73
2023-02-14T14:48:45.548Z,19.20
2023-02-14T14:53:55.821Z,19.60
2023-02-14T14:56:31.671Z,17.60
2023-02-14T14:59:17.023Z,17.55
2023-02-14T15:01:44.709Z,18.48
2023-02-14T15:04:15.730Z,18.90
2023-02-14T15:06:42.639Z,18.20
2023-02-14T15:09:21.328Z,19.02
2023-02-14T15:12:08.691Z,20.55
2023-02-14T15:14:41.348Z,19.85
2023-02-14T15:17:19.600Z,16.77
2023-02-14T15:19:56.120Z,18.33
2023-02-14T15:22:31.691Z,18.55
2023-02-14T15:24:58.491Z,19.40
2023-02-14T15:27:27.211Z,21.58
2023-02-14T15:30:09.502Z,20.25
2023-02-14T15:32:37.253Z,19.65
2023-02-14T15:35:06.748Z,18.95
2023-02-14T15:37:34.163Z,19.30
2023-02-14T15:40:02.081Z,21.05
2023-02-14T15:42:34.323Z,18.40
2023-02-14T15:45:21.189Z,18.98
2023-02-14T15:47:51.278Z,20.73
2023-02-14T15:50:26.055Z,19.10
2023-02-14T15:52:56.265Z,19.75
2023-02-14T15:55:26.170Z,18.73
2023-02-14T15:58:02.372Z,19.25
2023-02-14T16:00:31.526Z,20.52
2023-02-14T16:03:05.979Z,20.20
2023-02-14T16:05:32.782Z,18.85
2023-02-14T16:08:07.740Z,20.60
2023-02-14T16:10:35.959Z,20.60
2023-02-14T16:13:06.414Z,21.70
2023-02-14T16:15:35.516Z,19.02
2023-02-14T16:18:08.198Z,20.73
2023-02-14T16:20:51.161Z,21.63
2023-02-14T16:23:27.133Z,18.38
2023-02-14T16:25:57.155Z,19.20
2023-02-14T16:28:27.822Z,20.42
2023-02-14T16:30:57.000Z,20.85
2023-02-14T16:33:26.880Z,21.05
2023-02-14T16:35:54.486Z,24.10
2023-02-14T16:38:22.070Z,19.35
2023-02-14T16:40:51.941Z,22.48
2023-02-14T16:43:20.530Z,21.90
2023-02-14T16:45:47.744Z,21.83
2023-02-14T16:48:15.867Z,24.45
2023-02-14T16:50:44.668Z,22.85
2023-02-14T16:53:24.212Z,22.05
2023-02-14T16:55:53.538Z,25.27
2023-02-14T16:58:22.814Z,20.65
2023-02-14T17:00:49.419Z,23.33
2023-02-14T17:03:16.249Z,20.65
2023-02-14T17:05:43.258Z,21.25
2023-02-14T17:08:12.564Z,20.33
2023-02-14T17:10:41.623Z,22.77
2023-02-14T17:13:09.932Z,21.48
2023-02-14T17:15:38.937Z,20.17
2023-02-14T17:18:11.224Z,20.67
2023-02-14T17:20:38.507Z,25.23
2023-02-14T17:23:05.106Z,21.50
2023-02-14T17:25:31.822Z,22.40
2023-02-14T17:27:58.717Z,23.42
2023-02-14T17:30:25.480Z,21.55
2023-02-14T17:32:52.067Z,23.00
2023-02-14T17:35:19.318Z,24.38
2023-02-14T17:37:45.944Z,23.05
2023-02-14T17:40:12.977Z,23.67
2023-02-14T17:42:39.644Z,22.23
2023-02-14T17:45:07.852Z,25.10
2023-02-14T17:47:35.105Z,25.10
2023-02-14T17:50:03.502Z,21.73
2023-02-14T17:52:30.493Z,23.23
2023-02-14T17:54:57.209Z,24.20
2023-02-14T17:57:25.316Z,24.40
2023-02-14T17:59:51.922Z,26.35
2023-02-14T18:02:18.572Z,24.30
2023-02-14T18:04:45.310Z,25.30
2023-02-14T18:07:12.183Z,24.55
2023-02-14T18:09:38.916Z,25.00
2023-02-14T18:12:07.125Z,25.63
2023-02-14T18:14:34.344Z,23.13
2023-02-14T18:17:00.983Z,25.58
2023-02-14T18:19:28.138Z,23.27
2023-02-14T18:21:54.828Z,24.90
2023-02-14T18:24:21.422Z,27.40
2023-02-14T18:26:48.605Z,27.90
2023-02-14T18:29:15.266Z,25.60
2023-02-14T18:31:43.811Z,28.30
2023-02-14T18:34:10.857Z,29.20
2023-02-14T18:36:39.187Z,25.73
2023-02-14T18:39:06.911Z,25.38
2023-02-14T18:41:33.533Z,27.60
2023-02-14T18:44:01.267Z,27.45
2023-02-14T18:46:31.685Z,27.92
2023-02-14T18:48:58.579Z,29.17
2023-02-14T18:51:31.120Z,29.40
2023-02-14T18:53:59.293Z,28.15
2023-02-14T18:56:29.246Z,26.67
2023-02-14T18:58:59.154Z,27.95
2023-02-14T19:01:29.270Z,29.25
2023-02-14T19:03:57.388Z,27.70
2023-02-14T19:06:24.210Z,27.20
2023-02-14T19:08:51.139Z,28.75
2023-02-14T19:11:20.688Z,26.90
2023-02-14T19:13:49.891Z,26.27
2023-02-14T19:16:19.376Z,30.10
2023-02-14T19:18:46.488Z,29.15
2023-02-14T19:21:15.310Z,30.15
2023-02-14T19:23:42.336Z,31.35
2023-02-14T19:26:12.473Z,31.70
2023-02-14T19:28:39.748Z,27.15
2023-02-14T19:31:06.813Z,28.10
2023-02-14T19:33:38.275Z,31.75
2023-02-14T19:36:07.344Z,29.40
2023-02-14T19:38:34.517Z,32.22
2023-02-14T19:41:01.391Z,31.55
2023-02-14T19:43:28.436Z,32.47
2023-02-14T19:45:55.135Z,32.45
2023-02-14T19:48:21.766Z,32.28
2023-02-14T19:50:48.874Z,30.15
2023-02-14T19:53:15.715Z,30.52
2023-02-14T19:55:42.376Z,27.90
2023-02-14T19:58:09.082Z,34.45
2023-02-14T20:00:37.308Z,31.83
2023-02-14T20:03:04.027Z,33.45
2023-02-14T20:05:30.696Z,33.35
2023-02-14T20:07:57.290Z,34.63
2023-02-14T20:10:24.063Z,33.22
2023-02-14T20:12:50.700Z,34.15
2023-02-14T20:15:17.414Z,32.10
2023-02-14T20:17:44.466Z,38.70
2023-02-14T20:20:13.681Z,36.15
2023-02-14T20:22:40.966Z,33.58
2023-02-14T20:25:09.016Z,34.80
2023-02-14T20:27:36.297Z,36.47
2023-02-14T20:30:03.995Z,37.35
2023-02-14T20:32:31.521Z,38.58
2023-02-14T20:34:58.902Z,37.63
2023-02-14T20:37:25.525Z,40.05
2023-02-14T20:39:52.179Z,36.25
2023-02-14T20:42:18.896Z,35.60
2023-02-14T20:44:45.660Z,36.33
2023-02-14T20:47:12.563Z,37.90
2023-02-14T20:49:39.915Z,40.28
2023-02-14T20:52:06.607Z,34.38
2023-02-14T20:54:33.248Z,34.17
2023-02-14T20:56:59.911Z,38.00
2023-02-14T20:59:27.243Z,34.67
2023-02-14T21:01:55.238Z,33.55
2023-02-14T21:04:22.286Z,34.15
2023-02-14T21:06:49.363Z,34.05
2023-02-14T21:09:18.458Z,31.80
2023-02-14T21:11:45.107Z,35.65
2023-02-14T21:14:12.063Z,34.17
2023-02-14T21:16:38.769Z,34.00
2023-02-14T21:19:05.896Z,36.58
2023-02-14T21:21:36.399Z,37.13
2023-02-14T21:24:30.341Z,34.08
2023-02-14T21:26:57.037Z,39.38
2023-02-14T21:29:23.714Z,35.30
2023-02-14T21:31:50.426Z,35.90
2023-02-14T21:34:17.157Z,36.40
2023-02-14T21:36:43.796Z,32.25
2023-02-14T21:39:10.350Z,35.60
2023-02-14T21:41:37.703Z,30.15
2023-02-14T21:44:05.378Z,30.90
2023-02-14T21:46:35.846Z,28.80
2023-02-14T21:49:24.161Z,34.63
2023-02-14T21:51:50.889Z,29.58
2023-02-14T21:54:17.574Z,30.52
2023-02-14T21:56:44.273Z,30.88
2023-02-14T21:59:11.350Z,30.60
2023-02-14T22:01:40.187Z,31.45
2023-02-14T22:04:09.162Z,33.83
2023-02-14T22:06:37.899Z,30.20
2023-02-14T22:09:05.640Z,29.88
2023-02-14T22:11:32.270Z,28.83
2023-02-14T22:13:59.791Z,27.77
2023-02-14T22:16:26.437Z,25.77
2023-02-14T22:18:53.079Z,26.30
2023-02-14T22:21:22.572Z,26.25
2023-02-14T22:23:49.627Z,25.40
2023-02-14T22:26:26.141Z,24.48
2023-02-14T22:28:56.786Z,23.23
2023-02-14T22:31:24.624Z,23.15
2023-02-14T22:33:51.408Z,24.25
2023-02-14T22:36:18.361Z,24.30
2023-02-14T22:38:44.978Z,24.17
2023-02-14T22:41:16.059Z,22.60
2023-02-14T22:43:43.306Z,21.80
2023-02-14T22:46:12.283Z,24.35
2023-02-14T22:48:40.966Z,20.52
2023-02-14T22:51:20.835Z,19.77
2023-02-14T22:53:48.880Z,19.63
2023-02-14T22:56:17.528Z,21.27
2023-02-14T22:58:44.733Z,20.13
2023-02-14T23:01:16.842Z,20.63
2023-02-14T23:03:44.413Z,22.90
2023-02-14T23:06:11.764Z,21.58
2023-02-14T23:08:43.416Z,20.90
2023-02-14T23:11:13.905Z,21.33
2023-02-14T23:14:00.075Z,20.58
2023-02-14T23:16:45.332Z,17.38
2023-02-14T23:19:36.105Z,18.05
2023-02-14T23:22:09.098Z,18.80
2023-02-14T23:24:35.786Z,19.17
2023-02-14T23:27:02.768Z,17.95
2023-02-14T23:29:30.110Z,18.15
2023-02-14T23:31:56.817Z,16.25
2023-02-14T23:34:27.776Z,20.08
2023-02-14T23:36:54.638Z,18.33
2023-02-14T23:39:21.255Z,20.23
2023-02-14T23:41:47.869Z,19.58
2023-02-14T23:44:26.128Z,18.52
2023-02-14T23:46:55.880Z,19.15
2023-02-14T23:49:23.833Z,16.30
2023-02-14T23:51:51.681Z,18.35
2023-02-14T23:54:19.476Z,19.27
2023-02-14T23:56:46.473Z,18.17
2023-02-14T23:59:14.576Z,17.55
